Time;durP1;ratioP1;P1;durP2;ratioP2;P2;SDS_P1;SDS_P2;PMS_P1;PMS_P2;Temp;Humidity;BMP_temperature;BMP_pressure;BME280_temperature;BME280_humidity;BME280_pressure;Samples;Min_cycle;Max_cycle;Signal;HPM_P1;HPM_P2
2021/04/26 00:00:43;;;;;;;5.17;3.00;;;;;;;12.97;34.22;95752.94;5033416;28;20229;-85
2021/04/26 00:03:09;;;;;;;4.93;3.80;;;;;;;12.80;34.52;95747.25;5033689;28;20282;-85
2021/04/26 00:05:35;;;;;;;4.17;3.00;;;;;;;12.83;34.54;95742.69;5032824;28;20718;-83
2021/04/26 00:08:01;;;;;;;6.33;3.43;;;;;;;12.82;34.75;95735.91;5032750;28;20229;-84
2021/04/26 00:10:27;;;;;;;5.23;3.57;;;;;;;12.81;34.43;95742.88;5031982;28;20461;-83
2021/04/26 00:12:54;;;;;;;3.87;3.03;;;;;;;12.84;34.39;95737.34;5032905;28;20585;-84
2021/04/26 00:15:23;;;;;;;4.77;3.20;;;;;;;12.82;34.88;95736.72;5033319;28;20245;-88
2021/04/26 00:17:49;;;;;;;3.53;3.23;;;;;;;12.76;34.46;95725.34;5033219;28;20214;-85
2021/04/26 00:20:17;;;;;;;4.03;3.50;;;;;;;12.62;35.31;95718.47;5032883;28;20201;-86
2021/04/26 00:22:43;;;;;;;3.90;3.50;;;;;;;12.63;35.13;95714.91;5033711;28;20218;-87
2021/04/26 00:25:10;;;;;;;4.83;3.07;;;;;;;12.51;35.71;95708.63;5033270;28;20228;-86
2021/04/26 00:27:38;;;;;;;6.80;3.60;;;;;;;12.45;35.56;95702.44;5033490;28;20205;-87
2021/04/26 00:30:09;;;;;;;6.23;3.40;;;;;;;12.42;35.80;95702.00;5033364;28;20205;-86
2021/04/26 00:32:35;;;;;;;3.60;3.00;;;;;;;12.32;36.06;95697.13;5032709;28;20206;-87
2021/04/26 00:35:01;;;;;;;4.43;3.40;;;;;;;12.25;35.97;95687.75;5033047;28;20194;-88
2021/04/26 00:37:27;;;;;;;4.23;3.30;;;;;;;12.24;36.08;95697.25;5032247;28;20202;-88
2021/04/26 00:39:53;;;;;;;5.43;3.50;;;;;;;12.29;35.87;95686.38;5031995;28;20368;-86
2021/04/26 00:42:19;;;;;;;6.33;3.30;;;;;;;12.23;36.38;95675.00;5032802;28;20255;-86
2021/04/26 00:44:45;;;;;;;5.60;3.20;;;;;;;12.21;36.46;95668.44;5032120;28;20222;-85
2021/04/26 00:47:12;;;;;;;4.10;3.40;;;;;;;12.21;36.39;95661.47;5031765;28;20205;-85
2021/04/26 00:49:38;;;;;;;4.33;3.47;;;;;;;12.14;36.89;95660.63;5031164;28;20264;-85
2021/04/26 00:52:04;;;;;;;3.47;3.17;;;;;;;12.07;36.85;95664.94;5031615;28;20824;-84
2021/04/26 00:54:30;;;;;;;4.60;3.50;;;;;;;11.97;37.00;95661.84;5031719;28;20209;-84
2021/04/26 00:56:56;;;;;;;3.80;3.23;;;;;;;11.94;36.98;95654.44;5031910;28;20670;-83
2021/04/26 00:59:23;;;;;;;4.83;3.67;;;;;;;11.90;37.16;95659.19;5031564;28;20272;-84
2021/04/26 01:01:49;;;;;;;5.00;3.30;;;;;;;11.80;37.50;95656.09;5032397;28;20190;-84
2021/04/26 01:04:16;;;;;;;4.07;3.30;;;;;;;11.66;38.05;95651.75;5032114;28;20701;-86
2021/04/26 01:06:42;;;;;;;4.03;3.30;;;;;;;11.68;37.49;95660.13;5032392;28;20209;-85
2021/04/26 01:09:08;;;;;;;7.13;4.00;;;;;;;11.41;38.75;95662.38;5031563;28;20280;-86
2021/04/26 01:11:42;;;;;;;7.57;4.63;;;;;;;11.37;38.46;95662.91;5030858;28;20230;-84
2021/04/26 01:14:19;;;;;;;5.33;4.00;;;;;;;11.02;38.93;95662.63;5031450;28;20202;-86
2021/04/26 01:16:53;;;;;;;3.60;3.17;;;;;;;11.10;38.92;95664.34;5030988;28;20202;-84
2021/04/26 01:19:43;;;;;;;3.60;3.30;;;;;;;11.24;38.88;95650.66;5011510;28;20771;-83
2021/04/26 01:22:33;;;;;;;4.27;3.60;;;;;;;11.37;39.04;95660.31;5009798;28;20206;-84
2021/04/26 01:25:05;;;;;;;4.53;3.50;;;;;;;11.50;38.12;95646.81;5014989;28;20218;-83
2021/04/26 01:27:55;;;;;;;5.40;3.70;;;;;;;11.49;38.47;95642.63;5031704;28;20669;-84
2021/04/26 01:30:28;;;;;;;5.77;3.90;;;;;;;11.45;38.38;95638.81;5031313;28;20209;-84
2021/04/26 01:32:58;;;;;;;4.43;3.73;;;;;;;11.43;38.69;95637.22;5031359;28;20296;-84
2021/04/26 01:35:26;;;;;;;5.67;3.40;;;;;;;11.35;38.79;95639.09;5031281;28;20236;-85
2021/04/26 01:37:55;;;;;;;6.23;3.90;;;;;;;11.36;38.95;95631.16;5031219;28;21094;-84
2021/04/26 01:40:25;;;;;;;4.80;3.40;;;;;;;11.31;39.05;95635.28;5031823;28;20198;-87
2021/04/26 01:42:55;;;;;;;4.77;3.50;;;;;;;11.21;39.31;95627.00;5031984;28;20205;-87
2021/04/26 01:45:21;;;;;;;4.40;3.50;;;;;;;10.90;39.70;95624.63;5031689;28;20218;-86
2021/04/26 01:47:52;;;;;;;4.83;3.90;;;;;;;10.91;39.83;95628.81;5031994;28;20194;-87
2021/04/26 01:50:20;;;;;;;3.80;3.43;;;;;;;10.97;39.77;95622.91;5031490;28;20588;-88
2021/04/26 01:52:47;;;;;;;3.93;3.53;;;;;;;10.89;40.10;95617.88;5031443;28;20198;-86
2021/04/26 01:55:14;;;;;;;3.80;3.40;;;;;;;10.73;40.29;95617.06;5031829;28;20240;-88
2021/04/26 01:57:43;;;;;;;4.67;3.50;;;;;;;10.71;40.57;95619.03;5031789;28;20205;-87
2021/04/26 02:00:13;;;;;;;5.37;3.93;;;;;;;10.72;40.63;95619.81;5031598;28;20198;-88
2021/04/26 02:02:42;;;;;;;3.80;3.50;;;;;;;10.72;40.51;95609.53;5031397;28;20206;-88
2021/04/26 02:05:09;;;;;;;4.27;3.87;;;;;;;10.59;40.77;95615.25;5031272;28;20232;-86
2021/04/26 02:07:37;;;;;;;4.60;3.70;;;;;;;10.35;40.90;95616.31;5031834;28;20583;-87
2021/04/26 02:10:04;;;;;;;6.67;4.00;;;;;;;10.20;41.65;95614.66;5030839;28;20232;-87
2021/04/26 02:12:31;;;;;;;5.43;3.67;;;;;;;10.39;41.02;95616.75;5031937;28;20198;-87
2021/04/26 02:14:57;;;;;;;4.00;3.60;;;;;;;10.41;41.41;95608.84;5031457;28;20674;-86
2021/04/26 02:17:23;;;;;;;6.17;4.00;;;;;;;10.19;41.93;95613.88;5031861;28;20252;-87
2021/04/26 02:19:50;;;;;;;5.33;4.20;;;;;;;9.85;42.63;95616.00;5032790;28;20217;-87
2021/04/26 02:22:16;;;;;;;6.03;4.20;;;;;;;9.93;42.90;95618.53;5035619;28;20205;-87
2021/04/26 02:24:42;;;;;;;5.30;4.00;;;;;;;9.89;42.56;95619.81;5035602;28;20222;-88
2021/04/26 02:27:08;;;;;;;3.87;3.53;;;;;;;9.86;43.00;95618.41;5035009;28;20198;-86
2021/04/26 02:29:35;;;;;;;4.60;3.73;;;;;;;9.65;43.64;95621.56;5034986;28;20268;-87
2021/04/26 02:32:07;;;;;;;5.90;4.13;;;;;;;9.50;44.28;95625.03;5035489;28;20297;-88
2021/04/26 02:34:38;;;;;;;4.37;3.97;;;;;;;9.65;43.48;95629.28;5035704;28;20205;-87
2021/04/26 02:37:09;;;;;;;5.37;3.97;;;;;;;9.55;44.39;95625.34;5034528;28;20190;-84
2021/04/26 02:39:36;;;;;;;4.40;3.97;;;;;;;9.74;43.84;95614.63;5034378;28;20442;-84
2021/04/26 02:42:05;;;;;;;5.30;3.77;;;;;;;9.83;44.03;95616.16;5034412;28;20186;-85
2021/04/26 02:44:31;;;;;;;4.43;4.03;;;;;;;9.87;43.94;95608.91;5034457;28;20218;-83
2021/04/26 02:47:01;;;;;;;6.53;3.53;;;;;;;10.00;43.55;95601.44;5035199;28;20190;-86
2021/04/26 02:49:29;;;;;;;4.10;3.47;;;;;;;10.03;43.70;95595.94;5034552;28;20233;-87
2021/04/26 02:51:56;;;;;;;5.37;4.17;;;;;;;10.16;42.45;95588.44;5035353;28;20694;-88
2021/04/26 02:54:23;;;;;;;4.33;3.83;;;;;;;10.25;43.05;95584.03;5035704;28;20240;-89
2021/04/26 02:56:50;;;;;;;6.33;3.60;;;;;;;10.00;43.57;95588.59;5035384;28;20198;-87
2021/04/26 02:59:20;;;;;;;5.53;3.93;;;;;;;9.91;43.71;95587.81;5034806;28;20229;-88
2021/04/26 03:01:48;;;;;;;5.40;4.00;;;;;;;9.67;44.11;95593.94;5035000;28;20317;-87
2021/04/26 03:04:16;;;;;;;4.43;4.03;;;;;;;9.78;43.92;95577.31;5034664;28;20214;-88
2021/04/26 03:06:42;;;;;;;4.27;3.60;;;;;;;9.95;43.97;95578.00;5034209;28;20286;-87
2021/04/26 03:09:08;;;;;;;5.93;3.87;;;;;;;10.10;43.76;95573.69;5034480;28;20226;-87
2021/04/26 03:11:35;;;;;;;5.77;4.10;;;;;;;10.19;43.68;95567.56;5033723;28;20230;-88
2021/04/26 03:14:01;;;;;;;5.23;4.20;;;;;;;10.15;43.46;95565.47;5035200;28;20205;-87
2021/04/26 03:16:29;;;;;;;6.37;4.20;;;;;;;10.05;43.68;95563.91;5034535;28;20194;-86
2021/04/26 03:18:55;;;;;;;4.70;3.50;;;;;;;10.14;43.05;95558.72;5034521;28;20218;-87
2021/04/26 03:21:23;;;;;;;5.13;3.93;;;;;;;10.12;43.41;95551.16;5033492;28;20201;-86
2021/04/26 03:23:49;;;;;;;5.83;3.93;;;;;;;9.80;44.10;95554.81;5032283;28;20279;-86
2021/04/26 03:26:15;;;;;;;4.37;3.83;;;;;;;9.57;44.59;95559.94;5031385;28;20198;-85
2021/04/26 03:28:43;;;;;;;4.67;4.10;;;;;;;9.46;44.76;95554.38;5031595;28;20226;-87
2021/04/26 03:31:09;;;;;;;5.50;3.80;;;;;;;9.56;44.52;95550.63;5030920;28;20194;-86
2021/04/26 03:33:37;;;;;;;5.47;3.90;;;;;;;9.61;44.98;95548.38;5031710;28;20202;-86
2021/04/26 03:36:05;;;;;;;5.00;3.90;;;;;;;9.76;44.18;95550.19;5031594;28;20206;-88
2021/04/26 03:38:31;;;;;;;6.17;3.70;;;;;;;9.82;44.35;95552.03;5031716;28;20736;-89
2021/04/26 03:40:58;;;;;;;5.17;3.70;;;;;;;9.76;44.38;95550.97;5031455;28;20202;-86
2021/04/26 03:43:24;;;;;;;6.37;4.23;;;;;;;9.79;44.90;95539.56;5031263;28;20236;-86
2021/04/26 03:45:52;;;;;;;4.10;3.73;;;;;;;9.84;44.33;95532.91;5031409;28;20771;-85
2021/04/26 03:48:17;;;;;;;4.20;3.60;;;;;;;9.76;44.45;95533.00;5030679;28;20589;-86
2021/04/26 03:50:44;;;;;;;4.63;4.10;;;;;;;9.87;44.42;95542.84;5031137;28;20304;-87
2021/04/26 03:53:10;;;;;;;6.27;3.90;;;;;;;9.92;43.97;95535.41;5030958;28;20217;-86
2021/04/26 03:55:36;;;;;;;3.97;3.50;;;;;;;9.52;44.46;95533.94;5032255;28;20197;-86
2021/04/26 03:58:03;;;;;;;5.40;4.13;;;;;;;9.40;44.48;95537.91;5011542;28;20223;-86
2021/04/26 04:00:29;;;;;;;5.60;4.00;;;;;;;9.41;45.35;95533.56;5031014;28;20198;-85
2021/04/26 04:02:55;;;;;;;4.10;3.70;;;;;;;9.52;45.06;95544.22;5031178;28;20221;-85
2021/04/26 04:05:21;;;;;;;5.60;4.03;;;;;;;9.25;44.86;95539.56;5031061;28;20685;-86
2021/04/26 04:07:48;;;;;;;6.70;4.33;;;;;;;9.40;44.47;95527.63;5030766;28;20665;-86
2021/04/26 04:10:16;;;;;;;4.63;3.83;;;;;;;9.34;45.23;95530.84;5027698;28;20233;-88
2021/04/26 04:12:42;;;;;;;8.87;4.20;;;;;;;9.49;45.07;95512.94;5031008;28;20268;-82
2021/04/26 04:15:10;;;;;;;6.73;3.87;;;;;;;9.62;44.92;95518.31;5031395;28;20198;-82
2021/04/26 04:17:38;;;;;;;4.50;4.10;;;;;;;9.72;44.60;95518.06;5031129;28;20198;-83
2021/04/26 04:20:05;;;;;;;7.87;4.17;;;;;;;9.66;44.32;95509.25;5030160;28;20570;-84
2021/04/26 04:22:31;;;;;;;6.53;4.27;;;;;;;9.73;44.49;95507.63;5030446;28;20677;-82
2021/04/26 04:24:58;;;;;;;5.53;4.73;;;;;;;9.36;44.74;95513.50;5036000;28;20225;-82
2021/04/26 04:27:24;;;;;;;6.07;4.63;;;;;;;9.05;45.54;95521.22;5030664;28;20206;-84
2021/04/26 04:29:50;;;;;;;5.40;4.87;;;;;;;8.93;45.59;95527.69;5030648;28;20786;-83
2021/04/26 04:32:16;;;;;;;13.77;8.70;;;;;;;8.70;46.06;95535.31;5018551;28;20207;-83
2021/04/26 04:34:42;;;;;;;5.10;4.60;;;;;;;8.61;46.34;95532.00;5023975;28;20221;-83
2021/04/26 04:37:08;;;;;;;5.20;4.60;;;;;;;8.89;46.29;95544.41;5031072;28;20205;-84
2021/04/26 04:39:34;;;;;;;5.23;4.43;;;;;;;9.20;45.29;95544.44;5030723;28;20214;-85
2021/04/26 04:42:00;;;;;;;7.97;4.57;;;;;;;9.37;45.14;95545.13;5030854;28;20201;-83
2021/04/26 04:44:27;;;;;;;6.03;4.40;;;;;;;9.49;44.79;95543.78;5030520;28;20221;-82
2021/04/26 04:46:52;;;;;;;5.37;4.73;;;;;;;9.44;44.84;95544.28;5030337;28;20194;-82
2021/04/26 04:49:18;;;;;;;18.50;14.80;;;;;;;9.30;44.42;95545.81;5030782;28;20233;-82
2021/04/26 04:51:45;;;;;;;7.63;4.67;;;;;;;9.08;44.76;95546.56;5029583;28;21122;-82
2021/04/26 04:54:11;;;;;;;6.13;4.37;;;;;;;8.98;45.54;95549.34;5011905;28;20217;-82
2021/04/26 04:56:38;;;;;;;6.60;4.50;;;;;;;8.93;45.56;95537.97;5016923;28;20205;-80
2021/04/26 04:59:05;;;;;;;6.70;4.83;;;;;;;9.08;45.77;95543.19;5026828;28;20594;-84
2021/04/26 05:01:31;;;;;;;6.17;4.70;;;;;;;8.85;45.58;95540.59;5031370;28;20289;-83
2021/04/26 05:03:57;;;;;;;8.93;4.90;;;;;;;8.95;45.36;95538.59;5028612;28;20313;-82
2021/04/26 05:06:23;;;;;;;7.00;4.07;;;;;;;8.98;45.18;95540.84;5029538;28;20197;-82
2021/04/26 05:08:49;;;;;;;4.67;4.27;;;;;;;9.00;45.11;95538.91;5027793;28;20253;-81
2021/04/26 05:11:16;;;;;;;6.43;4.70;;;;;;;9.23;45.37;95533.81;5020296;28;20240;-81
2021/04/26 05:13:42;;;;;;;5.57;4.60;;;;;;;9.12;45.01;95535.00;5031798;28;20190;-81
2021/04/26 05:16:09;;;;;;;9.33;4.70;;;;;;;9.36;44.51;95539.19;5030711;28;20202;-81
2021/04/26 05:18:37;;;;;;;6.37;4.57;;;;;;;9.38;44.65;95541.59;5028697;28;20222;-83
2021/04/26 05:21:03;;;;;;;7.13;4.60;;;;;;;9.28;44.16;95532.31;5028631;28;20201;-82
2021/04/26 05:23:30;;;;;;;6.40;4.40;;;;;;;9.37;44.40;95533.09;5029529;28;20206;-82
2021/04/26 05:25:59;;;;;;;7.03;4.60;;;;;;;8.96;44.98;95528.16;5030634;28;20198;-84
2021/04/26 05:28:25;;;;;;;4.70;4.30;;;;;;;9.10;44.97;95528.41;5030087;28;20218;-84
2021/04/26 05:30:53;;;;;;;5.97;4.47;;;;;;;9.22;44.95;95527.88;5029814;28;20243;-81
2021/04/26 05:33:20;;;;;;;5.07;4.33;;;;;;;9.49;44.09;95525.78;5030120;28;20194;-84
2021/04/26 05:35:46;;;;;;;6.57;4.77;;;;;;;9.73;43.78;95533.31;5030102;28;20205;-81
2021/04/26 05:38:15;;;;;;;5.10;4.60;;;;;;;9.73;43.45;95538.47;5029061;28;20214;-83
2021/04/26 05:40:43;;;;;;;6.47;5.37;;;;;;;9.49;43.57;95530.91;5010865;28;20227;-82
2021/04/26 05:43:09;;;;;;;5.27;4.57;;;;;;;9.38;43.60;95528.75;5021731;28;20202;-85
2021/04/26 05:45:36;;;;;;;7.20;4.97;;;;;;;9.35;44.09;95530.69;5025401;28;20320;-83
2021/04/26 05:48:02;;;;;;;4.63;4.00;;;;;;;9.61;43.57;95525.22;5029608;28;20217;-82
2021/04/26 05:50:29;;;;;;;5.10;4.33;;;;;;;9.78;42.98;95523.34;5027613;28;20794;-85
2021/04/26 05:52:55;;;;;;;6.40;4.50;;;;;;;9.95;43.17;95517.06;5030875;28;20243;-83
2021/04/26 05:55:21;;;;;;;9.77;5.17;;;;;;;9.93;42.84;95526.75;5026468;28;20217;-83
2021/04/26 05:57:48;;;;;;;4.83;4.33;;;;;;;10.16;43.42;95525.91;5030042;28;20206;-84
2021/04/26 06:00:23;;;;;;;7.17;4.30;;;;;;;10.28;43.74;95529.66;5024915;28;20577;-82
2021/04/26 06:02:49;;;;;;;5.43;4.13;;;;;;;10.34;42.89;95528.97;5025064;28;20198;-82
2021/04/26 06:05:18;;;;;;;4.70;4.20;;;;;;;10.42;41.78;95523.72;5031606;28;20717;-83
2021/04/26 06:07:46;;;;;;;7.57;4.40;;;;;;;10.49;42.38;95528.97;5028035;28;20691;-84
2021/04/26 06:10:12;;;;;;;5.57;4.00;;;;;;;10.70;42.13;95527.28;5030518;28;20283;-84
2021/04/26 06:12:39;;;;;;;5.03;4.00;;;;;;;10.60;41.40;95537.03;5030187;28;20836;-82
2021/04/26 06:15:06;;;;;;;7.87;4.00;;;;;;;10.32;41.70;95533.50;5029762;28;20194;-82
2021/04/26 06:17:32;;;;;;;4.87;4.33;;;;;;;9.90;42.02;95534.78;5025874;28;20512;-83
2021/04/26 06:19:58;;;;;;;6.07;4.30;;;;;;;9.88;42.70;95535.94;5027641;28;20732;-83
2021/04/26 06:22:24;;;;;;;9.87;4.93;;;;;;;9.93;42.56;95529.31;5030724;28;20202;-84
2021/04/26 06:24:51;;;;;;;5.23;4.27;;;;;;;10.31;42.26;95521.59;5030409;28;20214;-83
2021/04/26 06:27:17;;;;;;;5.40;4.30;;;;;;;10.57;42.12;95526.31;5030808;28;20197;-81
2021/04/26 06:29:43;;;;;;;6.63;4.23;;;;;;;10.85;41.53;95523.91;5030286;28;20298;-81
2021/04/26 06:32:10;;;;;;;6.53;4.50;;;;;;;11.06;41.47;95529.13;5031475;28;20210;-85
2021/04/26 06:34:36;;;;;;;5.77;4.37;;;;;;;11.14;41.15;95528.22;5030361;28;20198;-85
2021/04/26 06:37:02;;;;;;;6.37;4.40;;;;;;;11.23;41.00;95522.75;5025094;28;20198;-85
2021/04/26 06:39:28;;;;;;;7.47;4.70;;;;;;;11.31;40.75;95516.72;5029931;28;20797;-84
2021/04/26 06:41:57;;;;;;;7.60;4.60;;;;;;;11.07;41.20;95518.63;5030638;28;20669;-83
2021/04/26 06:44:23;;;;;;;7.07;4.57;;;;;;;11.01;41.31;95518.53;5030990;28;20245;-83
2021/04/26 06:46:49;;;;;;;9.10;4.60;;;;;;;10.99;41.11;95517.91;5030649;28;20208;-84
2021/04/26 06:49:19;;;;;;;4.67;4.20;;;;;;;10.83;41.23;95513.78;5021312;28;20276;-82
2021/04/26 06:51:45;;;;;;;7.67;4.40;;;;;;;10.67;40.97;95509.63;5028618;28;20284;-83
2021/04/26 06:54:11;;;;;;;5.17;4.10;;;;;;;10.49;41.39;95529.78;5029024;28;20191;-82
2021/04/26 06:56:37;;;;;;;4.80;4.30;;;;;;;10.45;41.40;95520.81;5029919;28;20723;-84
2021/04/26 06:59:04;;;;;;;6.07;3.90;;;;;;;10.54;41.36;95519.75;5031246;28;20226;-84
2021/04/26 07:01:33;;;;;;;5.43;4.93;;;;;;;10.49;42.16;95518.69;5029184;28;20233;-81
2021/04/26 07:03:59;;;;;;;5.03;4.30;;;;;;;10.59;41.90;95524.34;5031685;28;20256;-83
2021/04/26 07:06:25;;;;;;;8.77;4.30;;;;;;;10.79;41.60;95529.75;5032129;28;20198;-83
2021/04/26 07:08:51;;;;;;;4.60;4.20;;;;;;;11.25;41.18;95525.97;5031240;28;20214;-82
2021/04/26 07:11:17;;;;;;;6.47;4.30;;;;;;;11.63;40.48;95525.75;5032825;28;20249;-83
2021/04/26 07:13:43;;;;;;;7.77;4.77;;;;;;;11.67;39.96;95519.25;5033935;28;20201;-82
2021/04/26 07:16:10;;;;;;;5.50;4.97;;;;;;;12.02;40.45;95520.16;5033405;28;20190;-79
2021/04/26 07:18:38;;;;;;;10.13;4.90;;;;;;;12.30;40.20;95515.81;5033601;28;20715;-84
2021/04/26 07:21:05;;;;;;;7.23;4.70;;;;;;;12.50;39.70;95520.31;5033817;28;20246;-83
2021/04/26 07:23:31;;;;;;;5.53;4.37;;;;;;;12.68;39.54;95523.19;5032723;28;20198;-82
2021/04/26 07:25:57;;;;;;;5.13;4.33;;;;;;;12.92;39.19;95516.72;5034113;28;20222;-81
2021/04/26 07:28:23;;;;;;;6.97;4.53;;;;;;;13.17;38.76;95519.66;5032693;28;20222;-81
2021/04/26 07:30:49;;;;;;;4.80;4.20;;;;;;;13.36;38.20;95518.91;5034468;28;20728;-82
2021/04/26 07:33:16;;;;;;;13.47;4.80;;;;;;;13.31;38.53;95516.91;5034541;28;20683;-81
2021/04/26 07:35:42;;;;;;;9.73;4.40;;;;;;;13.42;38.77;95521.53;5034742;28;20202;-83
2021/04/26 07:38:08;;;;;;;6.97;4.63;;;;;;;13.69;38.21;95522.34;5034276;28;20302;-81
2021/04/26 07:40:37;;;;;;;7.47;4.40;;;;;;;13.81;37.18;95520.78;5034861;28;20752;-83
2021/04/26 07:43:03;;;;;;;6.67;4.33;;;;;;;13.93;37.29;95520.19;5034275;28;20229;-83
2021/04/26 07:45:33;;;;;;;6.17;4.40;;;;;;;13.51;36.79;95521.31;5033141;28;20264;-82
2021/04/26 07:47:59;;;;;;;5.87;4.57;;;;;;;13.55;37.34;95513.00;5033209;28;20225;-82
2021/04/26 07:50:26;;;;;;;6.10;4.67;;;;;;;13.86;37.14;95519.38;5032460;28;20222;-85
2021/04/26 07:52:52;;;;;;;5.20;4.10;;;;;;;13.97;37.31;95519.59;5029747;28;20194;-84
2021/04/26 07:55:18;;;;;;;5.10;4.60;;;;;;;14.08;36.18;95519.00;5032348;28;20198;-83
2021/04/26 07:57:45;;;;;;;5.83;4.50;;;;;;;14.16;36.71;95530.97;5030950;28;20264;-83
2021/04/26 08:00:12;;;;;;;7.73;4.77;;;;;;;14.15;36.21;95532.75;5032637;28;20194;-85
2021/04/26 08:02:38;;;;;;;10.07;4.93;;;;;;;14.43;36.56;95527.34;5017605;28;20851;-83
2021/04/26 08:05:05;;;;;;;5.50;4.33;;;;;;;14.50;36.45;95533.34;5013584;28;20227;-84
2021/04/26 08:07:32;;;;;;;5.90;4.50;;;;;;;14.82;35.91;95525.69;5032489;28;20202;-82
2021/04/26 08:09:58;;;;;;;5.77;4.37;;;;;;;15.07;35.70;95516.22;5033338;28;20234;-79
2021/04/26 08:12:24;;;;;;;5.07;4.53;;;;;;;14.95;34.63;95524.88;5034219;28;20198;-82
2021/04/26 08:14:55;;;;;;;6.50;4.60;;;;;;;14.62;35.00;95527.56;5034190;28;20202;-82
2021/04/26 08:17:21;;;;;;;7.00;4.70;;;;;;;14.36;35.02;95525.75;5032773;28;20202;-84
2021/04/26 08:19:47;;;;;;;6.67;4.33;;;;;;;14.26;35.51;95530.53;5033889;28;20210;-82
2021/04/26 08:22:14;;;;;;;6.37;3.97;;;;;;;14.68;35.85;95527.53;5034743;28;20217;-82
2021/04/26 08:24:40;;;;;;;4.80;4.30;;;;;;;14.90;35.28;95520.28;5034686;28;20221;-84
2021/04/26 08:27:07;;;;;;;5.90;4.37;;;;;;;15.17;33.87;95519.19;5033394;28;20202;-83
2021/04/26 08:29:32;;;;;;;5.13;4.27;;;;;;;15.35;33.93;95517.72;5033078;28;20253;-82
2021/04/26 08:31:59;;;;;;;6.23;4.40;;;;;;;15.01;33.10;95511.09;5033662;28;20669;-83
2021/04/26 08:34:25;;;;;;;6.17;4.53;;;;;;;14.66;34.14;95508.78;5034582;28;20202;-83
2021/04/26 08:36:51;;;;;;;4.60;4.20;;;;;;;14.99;34.55;95503.50;5032251;28;20198;-83
2021/04/26 08:39:17;;;;;;;7.67;4.40;;;;;;;15.34;34.21;95496.16;5036688;28;20213;-84
2021/04/26 08:41:45;;;;;;;5.00;4.30;;;;;;;15.69;34.80;95512.16;5018504;28;20659;-83
2021/04/26 08:44:11;;;;;;;5.67;4.07;;;;;;;15.93;33.27;95510.59;5033413;28;20222;-84
2021/04/26 08:46:41;;;;;;;5.13;4.60;;;;;;;15.61;31.88;95514.19;5032152;28;20254;-82
2021/04/26 08:49:09;;;;;;;6.13;4.43;;;;;;;15.63;32.97;95507.78;5032244;28;20236;-84
2021/04/26 08:51:35;;;;;;;5.40;4.10;;;;;;;15.49;32.74;95509.66;5013554;28;20206;-85
2021/04/26 08:54:01;;;;;;;7.47;4.50;;;;;;;15.79;32.84;95512.47;5014082;28;20218;-86
2021/04/26 08:56:29;;;;;;;5.10;4.17;;;;;;;16.30;32.50;95500.31;5031464;28;20222;-84
2021/04/26 08:58:56;;;;;;;5.47;4.40;;;;;;;16.48;31.02;95508.13;5032523;28;20210;-80
2021/04/26 09:01:22;;;;;;;6.10;4.33;;;;;;;16.65;31.31;95505.78;5032909;28;20210;-86
2021/04/26 09:03:50;;;;;;;5.33;4.30;;;;;;;16.96;30.80;95500.44;5029992;28;20614;-84
2021/04/26 09:06:16;;;;;;;9.60;4.60;;;;;;;17.02;30.15;95501.38;5033074;28;20204;-82
2021/04/26 09:08:47;;;;;;;9.63;4.67;;;;;;;17.15;30.33;95496.00;5032352;28;20218;-83
2021/04/26 09:11:14;;;;;;;15.25;5.57;;;;;;;17.12;29.63;95494.66;5032057;28;20308;-83
2021/04/26 09:13:42;;;;;;;6.17;4.30;;;;;;;16.29;30.39;95501.31;5031224;28;20625;-83
2021/04/26 09:16:11;;;;;;;5.72;4.38;;;;;;;16.43;30.77;95492.38;5032259;28;20212;-84
2021/04/26 09:19:22;;;;;;;;;;;;;;;;;;;;;
2021/04/26 09:21:49;;;;;;;5.60;3.77;;;;;;;16.54;29.71;95494.28;4932410;29;20205;-82
2021/04/26 09:24:33;;;;;;;5.10;3.90;;;;;;;16.74;28.97;95491.50;4952907;28;20265;-85
2021/04/26 09:27:14;;;;;;;4.57;3.60;;;;;;;16.86;27.82;95493.16;5031419;28;20190;-83
2021/04/26 09:29:43;;;;;;;4.67;3.90;;;;;;;16.56;28.18;95494.81;5031903;28;20206;-81
2021/04/26 09:32:29;;;;;;;7.03;3.90;;;;;;;16.23;28.65;95495.16;5022165;28;20198;-79
2021/04/26 09:34:55;;;;;;;5.47;3.67;;;;;;;16.00;28.79;95500.13;5032297;28;20206;-85
2021/04/26 09:37:26;;;;;;;7.73;3.97;;;;;;;16.35;29.13;95500.47;5031314;28;20221;-82
2021/04/26 09:40:06;;;;;;;5.53;3.97;;;;;;;16.71;27.63;95489.31;5031917;28;20617;-84
2021/04/26 09:42:41;;;;;;;4.17;3.77;;;;;;;16.72;28.16;95473.50;5031823;28;20213;-85
2021/04/26 09:45:24;;;;;;;6.57;4.30;;;;;;;16.28;27.70;95481.53;5033141;28;20221;-84
2021/04/26 09:48:11;;;;;;;5.57;3.47;;;;;;;16.03;28.54;95479.75;5031449;28;20201;-85
2021/04/26 09:50:53;;;;;;;6.40;3.50;;;;;;;16.69;28.63;95479.16;5031473;28;20300;-83
2021/04/26 09:53:19;;;;;;;3.80;3.40;;;;;;;16.37;26.79;95475.03;5023140;28;20218;-85
2021/04/26 09:55:45;;;;;;;4.20;3.67;;;;;;;16.09;27.48;95481.50;5030259;28;20673;-83
2021/04/26 09:58:13;;;;;;;5.43;3.67;;;;;;;16.23;28.15;95476.97;5027167;28;20302;-82
2021/04/26 10:00:46;;;;;;;4.23;3.53;;;;;;;16.61;27.64;95482.00;5028627;28;20197;-83
2021/04/26 10:03:17;;;;;;;3.95;3.35;;;;;;;17.12;27.29;95473.03;5010848;28;20191;-82
2021/04/26 10:05:44;;;;;;;3.95;3.30;;;;;;;17.51;26.45;95467.28;5031058;28;20214;-84
2021/04/26 10:08:17;;;;;;;4.28;3.40;;;;;;;17.05;25.85;95473.13;5031822;28;20214;-82
2021/04/26 10:10:45;;;;;;;4.23;3.50;;;;;;;16.83;27.05;95464.97;5031429;28;20302;-85
2021/04/26 10:13:11;;;;;;;5.20;3.30;;;;;;;17.29;27.41;95460.22;5033165;28;20209;-83
2021/04/26 10:15:38;;;;;;;4.25;3.47;;;;;;;17.83;26.17;95467.84;5023063;28;20213;-84
2021/04/26 10:18:07;;;;;;;4.90;3.42;;;;;;;17.70;25.05;95465.47;5017751;28;20590;-84
2021/04/26 10:20:37;;;;;;;4.40;3.53;;;;;;;18.19;25.07;95458.25;5032747;28;20198;-83
2021/04/26 10:23:03;;;;;;;7.05;4.00;;;;;;;18.34;25.75;95463.00;5032492;28;20201;-86
2021/04/26 10:25:41;;;;;;;7.68;4.03;;;;;;;18.76;26.28;95459.22;5031359;28;20218;-83
2021/04/26 10:28:32;;;;;;;4.82;3.47;;;;;;;18.61;26.03;95466.75;5026205;28;20226;-86
2021/04/26 10:31:05;;;;;;;6.72;3.85;;;;;;;18.78;25.88;95459.00;5016534;28;20220;-85
2021/04/26 10:34:05;;;;;;;4.90;3.95;;;;;;;18.99;25.70;95445.34;5033241;28;20283;-84
2021/04/26 10:36:50;;;;;;;4.18;3.63;;;;;;;18.89;25.22;95445.91;5025726;28;20293;-82
2021/04/26 10:39:18;;;;;;;3.40;3.10;;;;;;;19.11;25.27;95440.06;5012576;28;20645;-82
2021/04/26 10:41:57;;;;;;;3.80;3.17;;;;;;;19.20;24.55;95429.03;5026684;28;20209;-86
2021/04/26 10:44:52;;;;;;;6.03;3.50;;;;;;;19.45;25.29;95426.06;5036636;28;20241;-84
2021/04/26 10:47:22;;;;;;;4.97;3.50;;;;;;;19.69;24.85;95424.13;5035063;28;20210;-85
2021/04/26 10:49:50;;;;;;;3.78;3.35;;;;;;;19.70;24.54;95428.34;5036245;28;20210;-84
2021/04/26 10:52:36;;;;;;;6.32;3.75;;;;;;;19.73;24.79;95412.19;5036146;28;20302;-84
2021/04/26 10:55:05;;;;;;;5.82;3.95;;;;;;;19.51;25.16;95411.31;5034375;28;20208;-81
2021/04/26 10:57:32;;;;;;;6.20;3.80;;;;;;;19.69;24.97;95415.50;5034959;28;20756;-84
2021/04/26 11:00:33;;;;;;;5.75;3.83;;;;;;;19.77;25.32;95413.31;5031448;28;20218;-85
2021/04/26 11:03:00;;;;;;;7.85;3.75;;;;;;;19.49;23.80;95410.72;5035560;28;20693;-84
2021/04/26 11:05:28;;;;;;;5.05;3.67;;;;;;;19.38;24.55;95409.75;5032339;28;20280;-83
2021/04/26 11:07:59;;;;;;;4.85;4.00;;;;;;;19.35;24.45;95396.38;5035807;28;20658;-82
2021/04/26 11:10:37;;;;;;;6.60;3.72;;;;;;;19.18;24.45;95396.34;5035596;28;20241;-84
2021/04/26 11:13:41;;;;;;;8.13;3.65;;;;;;;19.21;24.88;95391.47;5037223;28;20198;-83
2021/04/26 11:16:09;;;;;;;6.63;3.70;;;;;;;19.47;24.86;95394.47;5036936;28;20685;-84
2021/04/26 11:18:38;;;;;;;4.35;3.58;;;;;;;19.42;23.86;95390.00;5028093;28;20222;-84
2021/04/26 11:21:08;;;;;;;5.35;3.55;;;;;;;19.66;24.60;95386.22;5035470;28;20236;-82
2021/04/26 11:23:42;;;;;;;4.05;3.65;;;;;;;19.65;24.56;95378.59;5035392;28;20217;-85
2021/04/26 11:26:13;;;;;;;5.93;3.30;;;;;;;19.69;23.67;95379.72;5035549;28;20729;-84
2021/04/26 11:29:05;;;;;;;6.57;3.92;;;;;;;19.40;23.73;95381.59;5033405;28;20696;-85
2021/04/26 11:32:03;;;;;;;5.05;3.60;;;;;;;19.43;23.54;95377.72;5034842;28;20198;-83
2021/04/26 11:35:03;;;;;;;9.00;3.50;;;;;;;19.45;23.22;95381.66;5028760;28;20203;-83
2021/04/26 11:37:33;;;;;;;4.70;3.88;;;;;;;19.48;23.53;95375.19;5032134;28;20210;-84
2021/04/26 11:39:59;;;;;;;5.80;3.67;;;;;;;19.56;23.08;95375.63;5034888;28;20238;-85
2021/04/26 11:42:29;;;;;;;5.47;3.28;;;;;;;19.58;22.72;95370.94;5034651;28;21623;-82
2021/04/26 11:44:56;;;;;;;4.70;3.22;;;;;;;19.78;22.64;95372.28;5032713;28;20676;-83